sensor_id;sensor_type;location;lat;lon;timestamp;pressure;altitude;pressure_sealevel;temperature;humidity
17072;BME280;7731;50.720;6.912;2024-03-23T00:55:19;99381.81;;;7.93;100.00
17072;BME280;7731;50.720;6.912;2024-03-23T00:57:46;99388.91;;;7.53;100.00
17072;BME280;7731;50.720;6.912;2024-03-23T01:00:14;99387.38;;;7.49;100.00
17072;BME280;7731;50.720;6.912;2024-03-23T01:02:42;99394.31;;;7.47;100.00
17072;BME280;7731;50.720;6.912;2024-03-23T01:05:08;99397.56;;;7.14;100.00
17072;BME280;7731;50.720;6.912;2024-03-23T01:07:35;99386.06;;;7.42;100.00
17072;BME280;7731;50.720;6.912;2024-03-23T01:10:09;99374.06;;;7.60;100.00
17072;BME280;7731;50.720;6.912;2024-03-23T01:12:35;99387.09;;;7.38;100.00
17072;BME280;7731;50.720;6.912;2024-03-23T01:15:03;99375.06;;;7.22;100.00
17072;BME280;7731;50.720;6.912;2024-03-23T01:17:29;99378.09;;;7.48;100.00
17072;BME280;7731;50.720;6.912;2024-03-23T01:19:56;99371.53;;;7.42;100.00
17072;BME280;7731;50.720;6.912;2024-03-23T01:22:22;99377.31;;;7.81;100.00
17072;BME280;7731;50.720;6.912;2024-03-23T01:24:49;99378.97;;;7.64;100.00
17072;BME280;7731;50.720;6.912;2024-03-23T01:27:19;99391.22;;;7.40;100.00
17072;BME280;7731;50.720;6.912;2024-03-23T01:29:46;99381.22;;;7.36;100.00
17072;BME280;7731;50.720;6.912;2024-03-23T01:32:12;99376.34;;;7.48;100.00
17072;BME280;7731;50.720;6.912;2024-03-23T01:34:39;99368.06;;;7.26;100.00
17072;BME280;7731;50.720;6.912;2024-03-23T01:37:06;99376.38;;;7.29;100.00
17072;BME280;7731;50.720;6.912;2024-03-23T01:39:32;99378.06;;;7.30;100.00
17072;BME280;7731;50.720;6.912;2024-03-23T01:41:59;99373.97;;;7.26;100.00
17072;BME280;7731;50.720;6.912;2024-03-23T01:44:28;99348.13;;;6.97;100.00
17072;BME280;7731;50.720;6.912;2024-03-23T01:46:55;99352.03;;;7.05;100.00
17072;BME280;7731;50.720;6.912;2024-03-23T01:49:21;99341.75;;;7.41;100.00
17072;BME280;7731;50.720;6.912;2024-03-23T01:51:48;99338.97;;;7.63;100.00
17072;BME280;7731;50.720;6.912;2024-03-23T01:54:15;99343.72;;;7.54;100.00
17072;BME280;7731;50.720;6.912;2024-03-23T01:56:41;99345.44;;;7.36;100.00
17072;BME280;7731;50.720;6.912;2024-03-23T01:59:08;99336.88;;;7.54;100.00
17072;BME280;7731;50.720;6.912;2024-03-23T02:01:38;99338.00;;;7.13;100.00
17072;BME280;7731;50.720;6.912;2024-03-23T02:04:04;99343.09;;;7.31;100.00
17072;BME280;7731;50.720;6.912;2024-03-23T02:06:33;99342.44;;;7.27;100.00
17072;BME280;7731;50.720;6.912;2024-03-23T02:09:00;99345.88;;;7.26;100.00
17072;BME280;7731;50.720;6.912;2024-03-23T02:11:30;99339.50;;;7.35;100.00
17072;BME280;7731;50.720;6.912;2024-03-23T02:13:56;99339.53;;;6.98;100.00
17072;BME280;7731;50.720;6.912;2024-03-23T02:16:23;99346.81;;;6.89;100.00
17072;BME280;7731;50.720;6.912;2024-03-23T02:18:52;99340.31;;;7.18;100.00
17072;BME280;7731;50.720;6.912;2024-03-23T02:21:19;99332.59;;;7.02;100.00
17072;BME280;7731;50.720;6.912;2024-03-23T02:23:49;99346.88;;;6.70;100.00
17072;BME280;7731;50.720;6.912;2024-03-23T02:26:16;99347.09;;;6.83;100.00
17072;BME280;7731;50.720;6.912;2024-03-23T02:28:43;99349.22;;;6.92;100.00
17072;BME280;7731;50.720;6.912;2024-03-23T02:31:11;99348.56;;;6.69;100.00
17072;BME280;7731;50.720;6.912;2024-03-23T02:33:38;99345.31;;;6.85;100.00
17072;BME280;7731;50.720;6.912;2024-03-23T02:36:05;99335.72;;;6.71;100.00
17072;BME280;7731;50.720;6.912;2024-03-23T02:38:31;99343.88;;;6.79;100.00
17072;BME280;7731;50.720;6.912;2024-03-23T02:41:04;99350.94;;;6.55;100.00
17072;BME280;7731;50.720;6.912;2024-03-23T02:43:31;99356.63;;;6.22;100.00
17072;BME280;7731;50.720;6.912;2024-03-23T02:45:58;99367.31;;;6.11;100.00
17072;BME280;7731;50.720;6.912;2024-03-23T02:48:25;99372.66;;;5.84;100.00
17072;BME280;7731;50.720;6.912;2024-03-23T02:50:51;99380.06;;;6.11;100.00
17072;BME280;7731;50.720;6.912;2024-03-23T02:53:18;99396.25;;;5.89;100.00
17072;BME280;7731;50.720;6.912;2024-03-23T02:55:45;99393.13;;;6.03;100.00
17072;BME280;7731;50.720;6.912;2024-03-23T02:58:16;99384.56;;;5.43;100.00
17072;BME280;7731;50.720;6.912;2024-03-23T03:00:42;99385.44;;;5.64;100.00
17072;BME280;7731;50.720;6.912;2024-03-23T03:03:09;99393.75;;;5.47;100.00
17072;BME280;7731;50.720;6.912;2024-03-23T03:05:36;99388.78;;;5.44;100.00
17072;BME280;7731;50.720;6.912;2024-03-23T03:08:02;99386.06;;;5.48;100.00
17072;BME280;7731;50.720;6.912;2024-03-23T03:10:29;99384.59;;;5.21;100.00
17072;BME280;7731;50.720;6.912;2024-03-23T03:12:55;99388.91;;;5.41;100.00
17072;BME280;7731;50.720;6.912;2024-03-23T03:15:25;99391.66;;;5.36;100.00
17072;BME280;7731;50.720;6.912;2024-03-23T03:17:51;99398.66;;;5.51;100.00
17072;BME280;7731;50.720;6.912;2024-03-23T03:20:18;99396.50;;;5.42;100.00
17072;BME280;7731;50.720;6.912;2024-03-23T03:22:44;99392.41;;;5.59;100.00
17072;BME280;7731;50.720;6.912;2024-03-23T03:25:11;99398.38;;;5.37;100.00
17072;BME280;7731;50.720;6.912;2024-03-23T03:27:37;99407.25;;;5.49;100.00
17072;BME280;7731;50.720;6.912;2024-03-23T03:30:06;99400.78;;;5.19;100.00
17072;BME280;7731;50.720;6.912;2024-03-23T03:32:35;99382.47;;;5.52;100.00
17072;BME280;7731;50.720;6.912;2024-03-23T03:35:02;99398.09;;;5.23;100.00
17072;BME280;7731;50.720;6.912;2024-03-23T03:37:28;99399.97;;;5.17;100.00
17072;BME280;7731;50.720;6.912;2024-03-23T03:39:55;99397.66;;;5.76;100.00
17072;BME280;7731;50.720;6.912;2024-03-23T03:42:22;99398.97;;;5.85;100.00
17072;BME280;7731;50.720;6.912;2024-03-23T03:44:48;99406.75;;;5.41;100.00
17072;BME280;7731;50.720;6.912;2024-03-23T03:47:15;99405.88;;;5.83;100.00
17072;BME280;7731;50.720;6.912;2024-03-23T03:49:44;99401.34;;;5.48;100.00
17072;BME280;7731;50.720;6.912;2024-03-23T03:52:10;99405.09;;;5.60;100.00
17072;BME280;7731;50.720;6.912;2024-03-23T03:54:37;99391.34;;;5.22;100.00
17072;BME280;7731;50.720;6.912;2024-03-23T03:57:04;99390.22;;;5.29;100.00
17072;BME280;7731;50.720;6.912;2024-03-23T03:59:30;99399.34;;;5.12;100.00
17072;BME280;7731;50.720;6.912;2024-03-23T04:01:59;99405.25;;;5.13;100.00
17072;BME280;7731;50.720;6.912;2024-03-23T04:04:26;99413.78;;;5.34;100.00
17072;BME280;7731;50.720;6.912;2024-03-23T04:07:01;99423.81;;;5.16;100.00
17072;BME280;7731;50.720;6.912;2024-03-23T04:09:28;99425.88;;;5.29;100.00
17072;BME280;7731;50.720;6.912;2024-03-23T04:11:54;99423.16;;;5.33;100.00
17072;BME280;7731;50.720;6.912;2024-03-23T04:14:21;99419.31;;;5.66;100.00
17072;BME280;7731;50.720;6.912;2024-03-23T04:16:47;99426.22;;;5.42;100.00
17072;BME280;7731;50.720;6.912;2024-03-23T04:19:14;99421.84;;;5.45;100.00
17072;BME280;7731;50.720;6.912;2024-03-23T04:21:41;99433.22;;;5.14;100.00
17072;BME280;7731;50.720;6.912;2024-03-23T04:24:10;99432.28;;;5.17;100.00
17072;BME280;7731;50.720;6.912;2024-03-23T04:26:41;99429.53;;;5.22;100.00
17072;BME280;7731;50.720;6.912;2024-03-23T04:29:08;99434.63;;;5.22;100.00
17072;BME280;7731;50.720;6.912;2024-03-23T04:31:34;99437.66;;;5.09;100.00
17072;BME280;7731;50.720;6.912;2024-03-23T04:34:01;99443.84;;;5.02;100.00
17072;BME280;7731;50.720;6.912;2024-03-23T04:36:28;99449.97;;;4.98;100.00
17072;BME280;7731;50.720;6.912;2024-03-23T04:38:54;99438.88;;;4.99;100.00
17072;BME280;7731;50.720;6.912;2024-03-23T04:41:23;99437.38;;;5.17;100.00
17072;BME280;7731;50.720;6.912;2024-03-23T04:43:50;99432.75;;;5.27;100.00
17072;BME280;7731;50.720;6.912;2024-03-23T04:46:16;99439.69;;;5.66;100.00
17072;BME280;7731;50.720;6.912;2024-03-23T04:48:43;99434.66;;;5.85;100.00
17072;BME280;7731;50.720;6.912;2024-03-23T04:51:10;99440.56;;;5.65;100.00
17072;BME280;7731;50.720;6.912;2024-03-23T04:53:37;99427.28;;;5.58;100.00
17072;BME280;7731;50.720;6.912;2024-03-23T04:56:04;99435.47;;;5.44;100.00
17072;BME280;7731;50.720;6.912;2024-03-23T04:58:34;99438.16;;;5.62;100.00
17072;BME280;7731;50.720;6.912;2024-03-23T05:01:00;99442.63;;;5.99;100.00
17072;BME280;7731;50.720;6.912;2024-03-23T05:03:27;99435.91;;;5.76;100.00
17072;BME280;7731;50.720;6.912;2024-03-23T05:05:53;99437.16;;;5.66;100.00
17072;BME280;7731;50.720;6.912;2024-03-23T05:08:20;99439.94;;;5.60;100.00
17072;BME280;7731;50.720;6.912;2024-03-23T05:10:46;99432.44;;;5.77;100.00
17072;BME280;7731;50.720;6.912;2024-03-23T05:13:13;99433.47;;;5.30;100.00
17072;BME280;7731;50.720;6.912;2024-03-23T05:15:42;99431.34;;;5.19;100.00
17072;BME280;7731;50.720;6.912;2024-03-23T05:18:09;99427.03;;;5.64;100.00
17072;BME280;7731;50.720;6.912;2024-03-23T05:20:35;99428.22;;;5.55;100.00
17072;BME280;7731;50.720;6.912;2024-03-23T05:23:02;99433.06;;;5.62;100.00
17072;BME280;7731;50.720;6.912;2024-03-23T05:25:28;99428.63;;;5.45;100.00
17072;BME280;7731;50.720;6.912;2024-03-23T05:27:55;99439.00;;;5.40;100.00
17072;BME280;7731;50.720;6.912;2024-03-23T05:30:21;99443.38;;;5.59;100.00
17072;BME280;7731;50.720;6.912;2024-03-23T05:32:50;99439.88;;;6.04;100.00
17072;BME280;7731;50.720;6.912;2024-03-23T05:35:17;99436.47;;;5.83;100.00
17072;BME280;7731;50.720;6.912;2024-03-23T05:37:44;99436.09;;;5.71;100.00
17072;BME280;7731;50.720;6.912;2024-03-23T05:40:13;99432.84;;;5.24;100.00
17072;BME280;7731;50.720;6.912;2024-03-23T05:42:40;99436.31;;;5.23;100.00
17072;BME280;7731;50.720;6.912;2024-03-23T05:45:08;99439.84;;;4.96;100.00
17072;BME280;7731;50.720;6.912;2024-03-23T05:47:34;99439.94;;;5.60;100.00
17072;BME280;7731;50.720;6.912;2024-03-23T05:50:08;99443.53;;;5.33;100.00
17072;BME280;7731;50.720;6.912;2024-03-23T05:52:35;99458.31;;;5.24;100.00
17072;BME280;7731;50.720;6.912;2024-03-23T05:55:01;99450.94;;;5.40;100.00
17072;BME280;7731;50.720;6.912;2024-03-23T05:57:28;99456.56;;;5.26;100.00
17072;BME280;7731;50.720;6.912;2024-03-23T05:59:56;99447.25;;;5.25;100.00
17072;BME280;7731;50.720;6.912;2024-03-23T06:02:23;99448.91;;;5.26;100.00
17072;BME280;7731;50.720;6.912;2024-03-23T06:04:50;99446.66;;;5.18;100.00
17072;BME280;7731;50.720;6.912;2024-03-23T06:07:19;99452.13;;;5.73;100.00
17072;BME280;7731;50.720;6.912;2024-03-23T06:09:46;99456.31;;;5.32;100.00
17072;BME280;7731;50.720;6.912;2024-03-23T06:12:12;99460.16;;;5.20;100.00
17072;BME280;7731;50.720;6.912;2024-03-23T06:14:39;99456.44;;;5.29;100.00
17072;BME280;7731;50.720;6.912;2024-03-23T06:17:05;99459.88;;;5.50;100.00
17072;BME280;7731;50.720;6.912;2024-03-23T06:19:32;99452.50;;;5.85;100.00
17072;BME280;7731;50.720;6.912;2024-03-23T06:21:58;99453.81;;;5.52;100.00
17072;BME280;7731;50.720;6.912;2024-03-23T06:24:28;99453.19;;;5.68;100.00
17072;BME280;7731;50.720;6.912;2024-03-23T06:26:54;99457.88;;;5.36;100.00
17072;BME280;7731;50.720;6.912;2024-03-23T06:29:21;99452.81;;;5.57;100.00
17072;BME280;7731;50.720;6.912;2024-03-23T06:31:53;99455.72;;;5.47;100.00
17072;BME280;7731;50.720;6.912;2024-03-23T06:34:20;99458.91;;;5.52;100.00
17072;BME280;7731;50.720;6.912;2024-03-23T06:36:47;99460.41;;;5.58;100.00
17072;BME280;7731;50.720;6.912;2024-03-23T06:39:14;99463.63;;;5.62;100.00
17072;BME280;7731;50.720;6.912;2024-03-23T06:41:53;99467.91;;;5.61;100.00
17072;BME280;7731;50.720;6.912;2024-03-23T06:44:20;99468.63;;;5.65;100.00
17072;BME280;7731;50.720;6.912;2024-03-23T06:46:47;99475.59;;;6.04;100.00
17072;BME280;7731;50.720;6.912;2024-03-23T06:49:15;99476.84;;;6.35;100.00
17072;BME280;7731;50.720;6.912;2024-03-23T06:51:41;99472.63;;;6.34;100.00
17072;BME280;7731;50.720;6.912;2024-03-23T06:54:08;99470.84;;;6.36;100.00
17072;BME280;7731;50.720;6.912;2024-03-23T06:56:35;99467.81;;;6.07;100.00
17072;BME280;7731;50.720;6.912;2024-03-23T06:59:04;99469.84;;;6.19;100.00
17072;BME280;7731;50.720;6.912;2024-03-23T07:01:31;99468.88;;;6.22;100.00
17072;BME280;7731;50.720;6.912;2024-03-23T07:03:58;99481.28;;;6.30;100.00
17072;BME280;7731;50.720;6.912;2024-03-23T07:06:24;99477.25;;;6.65;100.00
17072;BME280;7731;50.720;6.912;2024-03-23T07:08:52;99478.78;;;6.88;100.00
17072;BME280;7731;50.720;6.912;2024-03-23T07:11:19;99492.69;;;6.81;100.00
17072;BME280;7731;50.720;6.912;2024-03-23T07:13:46;99488.72;;;6.94;100.00
17072;BME280;7731;50.720;6.912;2024-03-23T07:16:18;99499.34;;;6.85;100.00
17072;BME280;7731;50.720;6.912;2024-03-23T07:18:44;99497.00;;;7.00;100.00
17072;BME280;7731;50.720;6.912;2024-03-23T07:21:11;99500.28;;;6.83;100.00
17072;BME280;7731;50.720;6.912;2024-03-23T07:23:38;99496.72;;;7.06;100.00
17072;BME280;7731;50.720;6.912;2024-03-23T07:26:08;99501.59;;;7.48;100.00
17072;BME280;7731;50.720;6.912;2024-03-23T07:28:34;99498.88;;;7.51;100.00
17072;BME280;7731;50.720;6.912;2024-03-23T07:31:03;99495.22;;;7.92;100.00
17072;BME280;7731;50.720;6.912;2024-03-23T07:33:36;99494.47;;;8.76;100.00
17072;BME280;7731;50.720;6.912;2024-03-23T07:36:04;99482.25;;;11.21;100.00
17072;BME280;7731;50.720;6.912;2024-03-23T07:38:31;99485.72;;;12.66;82.22
17072;BME280;7731;50.720;6.912;2024-03-23T07:41:05;99477.88;;;12.55;79.89
17072;BME280;7731;50.720;6.912;2024-03-23T07:43:32;99471.56;;;14.39;65.71
17072;BME280;7731;50.720;6.912;2024-03-23T07:45:59;99476.25;;;14.91;63.26
17072;BME280;7731;50.720;6.912;2024-03-23T07:48:26;99477.31;;;16.39;56.88
17072;BME280;7731;50.720;6.912;2024-03-23T07:51:06;99481.88;;;15.07;56.10
17072;BME280;7731;50.720;6.912;2024-03-23T07:53:34;99487.44;;;16.00;57.68
17072;BME280;7731;50.720;6.912;2024-03-23T07:56:03;99491.75;;;14.11;56.68
17072;BME280;7731;50.720;6.912;2024-03-23T07:58:30;99555.53;;;11.28;72.57
17072;BME280;7731;50.720;6.912;2024-03-23T08:01:03;99564.81;;;7.45;91.17
17072;BME280;7731;50.720;6.912;2024-03-23T08:03:31;99568.53;;;5.95;100.00
17072;BME280;7731;50.720;6.912;2024-03-23T08:05:58;99545.13;;;5.63;100.00
17072;BME280;7731;50.720;6.912;2024-03-23T08:08:35;99516.72;;;5.72;100.00
17072;BME280;7731;50.720;6.912;2024-03-23T08:11:01;99512.72;;;5.67;100.00
17072;BME280;7731;50.720;6.912;2024-03-23T08:13:28;99501.91;;;5.82;100.00
17072;BME280;7731;50.720;6.912;2024-03-23T08:15:57;99510.16;;;6.51;100.00
17072;BME280;7731;50.720;6.912;2024-03-23T08:18:24;99517.28;;;7.03;100.00
17072;BME280;7731;50.720;6.912;2024-03-23T08:20:57;99515.97;;;7.68;100.00
17072;BME280;7731;50.720;6.912;2024-03-23T08:23:25;99503.91;;;10.61;83.98
17072;BME280;7731;50.720;6.912;2024-03-23T08:25:58;99499.59;;;12.89;62.67
17072;BME280;7731;50.720;6.912;2024-03-23T08:28:25;99511.88;;;13.35;61.51
17072;BME280;7731;50.720;6.912;2024-03-23T08:30:52;99502.44;;;16.79;52.88
17072;BME280;7731;50.720;6.912;2024-03-23T08:33:19;99500.47;;;17.02;48.04
17072;BME280;7731;50.720;6.912;2024-03-23T08:35:54;99508.56;;;15.08;53.67
17072;BME280;7731;50.720;6.912;2024-03-23T08:38:21;99501.50;;;17.89;47.85
17072;BME280;7731;50.720;6.912;2024-03-23T08:40:48;99499.66;;;18.66;44.28
17072;BME280;7731;50.720;6.912;2024-03-23T08:43:17;99501.25;;;17.92;46.71
17072;BME280;7731;50.720;6.912;2024-03-23T08:45:43;99499.75;;;16.29;49.53
17072;BME280;7731;50.720;6.912;2024-03-23T08:48:11;99503.09;;;17.12;49.41
17072;BME280;7731;50.720;6.912;2024-03-23T08:50:37;99515.75;;;13.65;57.60
17072;BME280;7731;50.720;6.912;2024-03-23T08:53:05;99508.50;;;13.46;65.14
17072;BME280;7731;50.720;6.912;2024-03-23T08:55:32;99495.81;;;14.61;63.89
17072;BME280;7731;50.720;6.912;2024-03-23T08:57:58;99502.31;;;14.20;61.25
17072;BME280;7731;50.720;6.912;2024-03-23T09:00:27;99504.50;;;14.82;60.12
17072;BME280;7731;50.720;6.912;2024-03-23T09:02:54;99500.03;;;14.96;53.86
17072;BME280;7731;50.720;6.912;2024-03-23T09:05:20;99494.56;;;14.31;56.84
17072;BME280;7731;50.720;6.912;2024-03-23T09:07:47;99509.84;;;12.78;63.04
17072;BME280;7731;50.720;6.912;2024-03-23T09:10:14;99507.28;;;12.52;67.55
17072;BME280;7731;50.720;6.912;2024-03-23T09:12:40;99513.75;;;11.24;74.60
17072;BME280;7731;50.720;6.912;2024-03-23T09:15:07;99523.28;;;11.37;73.44
17072;BME280;7731;50.720;6.912;2024-03-23T09:17:36;99521.63;;;10.21;79.32
17072;BME280;7731;50.720;6.912;2024-03-23T09:20:04;99516.63;;;10.03;80.68
17072;BME280;7731;50.720;6.912;2024-03-23T09:22:31;99520.81;;;9.43;81.29
17072;BME280;7731;50.720;6.912;2024-03-23T09:24:57;99522.69;;;9.24;89.73
17072;BME280;7731;50.720;6.912;2024-03-23T09:27:24;99513.38;;;9.39;89.06
17072;BME280;7731;50.720;6.912;2024-03-23T09:29:50;99507.16;;;11.75;74.49
17072;BME280;7731;50.720;6.912;2024-03-23T09:32:17;99500.91;;;13.80;64.05
17072;BME280;7731;50.720;6.912;2024-03-23T09:34:48;99499.56;;;14.79;59.37
17072;BME280;7731;50.720;6.912;2024-03-23T09:37:14;99494.63;;;14.99;54.93
17072;BME280;7731;50.720;6.912;2024-03-23T09:39:42;99486.38;;;14.49;54.67
17072;BME280;7731;50.720;6.912;2024-03-23T09:42:09;99489.06;;;15.47;50.94
17072;BME280;7731;50.720;6.912;2024-03-23T09:44:36;99488.56;;;15.53;50.49
17072;BME280;7731;50.720;6.912;2024-03-23T09:47:03;99489.06;;;15.47;51.70
17072;BME280;7731;50.720;6.912;2024-03-23T09:49:30;99500.00;;;12.83;56.63
17072;BME280;7731;50.720;6.912;2024-03-23T09:51:59;99507.38;;;13.00;58.29
17072;BME280;7731;50.720;6.912;2024-03-23T09:54:26;99493.03;;;12.08;59.84
17072;BME280;7731;50.720;6.912;2024-03-23T09:56:53;99508.72;;;11.08;62.42
17072;BME280;7731;50.720;6.912;2024-03-23T09:59:19;99503.06;;;10.46;69.03
17072;BME280;7731;50.720;6.912;2024-03-23T10:01:46;99511.44;;;10.78;70.11
17072;BME280;7731;50.720;6.912;2024-03-23T10:04:37;99499.13;;;11.25;69.77
17072;BME280;7731;50.720;6.912;2024-03-23T10:07:15;99497.97;;;11.98;67.50
17072;BME280;7731;50.720;6.912;2024-03-23T10:09:41;99500.94;;;11.65;65.35
17072;BME280;7731;50.720;6.912;2024-03-23T10:12:10;99494.53;;;10.45;71.20
17072;BME280;7731;50.720;6.912;2024-03-23T10:14:37;99501.16;;;10.78;70.63
17072;BME280;7731;50.720;6.912;2024-03-23T10:17:16;99523.69;;;10.44;73.03
17072;BME280;7731;50.720;6.912;2024-03-23T10:19:44;99544.09;;;9.55;87.30
17072;BME280;7731;50.720;6.912;2024-03-23T10:22:19;99556.44;;;7.78;100.00
17072;BME280;7731;50.720;6.912;2024-03-23T10:24:46;99564.09;;;7.22;100.00
17072;BME280;7731;50.720;6.912;2024-03-23T10:27:17;99569.72;;;6.91;100.00
17072;BME280;7731;50.720;6.912;2024-03-23T10:29:44;99575.09;;;6.02;100.00
17072;BME280;7731;50.720;6.912;2024-03-23T10:32:12;99580.72;;;6.11;100.00
17072;BME280;7731;50.720;6.912;2024-03-23T10:34:39;99577.91;;;5.95;100.00
17072;BME280;7731;50.720;6.912;2024-03-23T10:37:07;99572.38;;;5.83;100.00
17072;BME280;7731;50.720;6.912;2024-03-23T10:39:40;99569.34;;;5.96;100.00
17072;BME280;7731;50.720;6.912;2024-03-23T10:42:08;99561.66;;;5.97;100.00
17072;BME280;7731;50.720;6.912;2024-03-23T10:44:35;99548.97;;;5.96;100.00
17072;BME280;7731;50.720;6.912;2024-03-23T10:47:04;99558.81;;;6.05;100.00
17072;BME280;7731;50.720;6.912;2024-03-23T10:49:32;99552.75;;;6.50;100.00
17072;BME280;7731;50.720;6.912;2024-03-23T10:52:01;99550.69;;;6.98;100.00
17072;BME280;7731;50.720;6.912;2024-03-23T10:54:30;99541.50;;;7.51;100.00
17072;BME280;7731;50.720;6.912;2024-03-23T10:57:06;99533.19;;;9.03;92.95
17072;BME280;7731;50.720;6.912;2024-03-23T10:59:37;99523.69;;;10.44;74.10
17072;BME280;7731;50.720;6.912;2024-03-23T11:02:04;99516.34;;;12.32;69.83
17072;BME280;7731;50.720;6.912;2024-03-23T11:04:32;99515.28;;;12.86;61.08
17072;BME280;7731;50.720;6.912;2024-03-23T11:07:03;99508.25;;;12.88;61.92
17072;BME280;7731;50.720;6.912;2024-03-23T11:09:49;99499.84;;;12.73;59.58
17072;BME280;7731;50.720;6.912;2024-03-23T11:12:31;99522.31;;;11.52;64.26
17072;BME280;7731;50.720;6.912;2024-03-23T11:15:01;99514.78;;;12.17;64.06
17072;BME280;7731;50.720;6.912;2024-03-23T11:17:29;99505.91;;;12.72;61.92
17072;BME280;7731;50.720;6.912;2024-03-23T11:19:57;99529.28;;;11.50;62.25
17072;BME280;7731;50.720;6.912;2024-03-23T11:22:41;99529.41;;;9.26;74.32
17072;BME280;7731;50.720;6.912;2024-03-23T11:25:17;99519.06;;;8.63;74.59
17072;BME280;7731;50.720;6.912;2024-03-23T11:27:51;99513.28;;;8.24;77.92
17072;BME280;7731;50.720;6.912;2024-03-23T11:30:19;99514.31;;;8.72;78.64
17072;BME280;7731;50.720;6.912;2024-03-23T11:32:49;99506.38;;;11.33;69.39
17072;BME280;7731;50.720;6.912;2024-03-23T11:35:27;99491.25;;;13.22;60.15
17072;BME280;7731;50.720;6.912;2024-03-23T11:38:09;99494.25;;;13.89;57.20
17072;BME280;7731;50.720;6.912;2024-03-23T11:40:39;99499.22;;;13.44;58.97
17072;BME280;7731;50.720;6.912;2024-03-23T11:43:10;99508.16;;;11.18;64.69
17072;BME280;7731;50.720;6.912;2024-03-23T11:45:39;99503.31;;;10.41;74.62
17072;BME280;7731;50.720;6.912;2024-03-23T11:48:08;99514.97;;;9.72;79.71
17072;BME280;7731;50.720;6.912;2024-03-23T11:50:38;99502.44;;;9.35;83.01
17072;BME280;7731;50.720;6.912;2024-03-23T11:53:13;99507.69;;;8.84;84.22
17072;BME280;7731;50.720;6.912;2024-03-23T11:55:47;99510.53;;;9.11;85.81
17072;BME280;7731;50.720;6.912;2024-03-23T11:58:19;99497.75;;;10.04;82.30
17072;BME280;7731;50.720;6.912;2024-03-23T12:00:57;99496.66;;;10.53;78.21
17072;BME280;7731;50.720;6.912;2024-03-23T12:03:26;99485.88;;;11.04;75.05
17072;BME280;7731;50.720;6.912;2024-03-23T12:05:55;99488.97;;;10.67;72.61
17072;BME280;7731;50.720;6.912;2024-03-23T12:08:24;99480.41;;;10.81;72.73
17072;BME280;7731;50.720;6.912;2024-03-23T12:10:53;99469.41;;;10.36;75.44
17072;BME280;7731;50.720;6.912;2024-03-23T12:13:23;99478.59;;;10.10;77.14
17072;BME280;7731;50.720;6.912;2024-03-23T12:15:51;99485.03;;;9.72;80.60
17072;BME280;7731;50.720;6.912;2024-03-23T12:18:23;99473.59;;;9.16;76.78
17072;BME280;7731;50.720;6.912;2024-03-23T12:20:50;99464.81;;;9.36;76.37
17072;BME280;7731;50.720;6.912;2024-03-23T12:23:17;99462.28;;;9.66;76.60
17072;BME280;7731;50.720;6.912;2024-03-23T12:25:43;99455.41;;;9.67;70.87
17072;BME280;7731;50.720;6.912;2024-03-23T12:28:10;99453.81;;;10.39;69.62
17072;BME280;7731;50.720;6.912;2024-03-23T12:30:40;99445.56;;;10.48;63.75
17072;BME280;7731;50.720;6.912;2024-03-23T12:33:06;99443.72;;;11.06;62.99
17072;BME280;7731;50.720;6.912;2024-03-23T12:35:33;99436.63;;;11.24;62.49
17072;BME280;7731;50.720;6.912;2024-03-23T12:38:00;99436.22;;;11.71;63.02
17072;BME280;7731;50.720;6.912;2024-03-23T12:40:27;99425.34;;;11.40;59.77
17072;BME280;7731;50.720;6.912;2024-03-23T12:42:54;99434.31;;;12.00;57.84
17072;BME280;7731;50.720;6.912;2024-03-23T12:45:22;99452.41;;;11.86;57.83
17072;BME280;7731;50.720;6.912;2024-03-23T12:47:52;99452.66;;;10.29;66.39
17072;BME280;7731;50.720;6.912;2024-03-23T12:50:19;99462.41;;;9.17;75.09
17072;BME280;7731;50.720;6.912;2024-03-23T12:52:45;99478.94;;;8.63;78.84
17072;BME280;7731;50.720;6.912;2024-03-23T12:55:12;99469.69;;;9.24;79.49
17072;BME280;7731;50.720;6.912;2024-03-23T12:57:39;99472.34;;;9.39;78.58
17072;BME280;7731;50.720;6.912;2024-03-23T13:00:07;99491.09;;;8.91;79.40
17072;BME280;7731;50.720;6.912;2024-03-23T13:02:35;99476.50;;;8.27;80.87
17072;BME280;7731;50.720;6.912;2024-03-23T13:05:06;99473.53;;;8.52;85.30
17072;BME280;7731;50.720;6.912;2024-03-23T13:07:33;99470.81;;;7.86;79.23
17072;BME280;7731;50.720;6.912;2024-03-23T13:09:59;99445.66;;;7.60;81.26
17072;BME280;7731;50.720;6.912;2024-03-23T13:12:26;99443.50;;;7.87;81.04
17072;BME280;7731;50.720;6.912;2024-03-23T13:14:53;99433.09;;;8.41;79.28
17072;BME280;7731;50.720;6.912;2024-03-23T13:17:19;99422.75;;;9.24;75.71
17072;BME280;7731;50.720;6.912;2024-03-23T13:19:46;99423.19;;;9.46;70.52
17072;BME280;7731;50.720;6.912;2024-03-23T13:22:15;99429.97;;;9.47;70.96
17072;BME280;7731;50.720;6.912;2024-03-23T13:24:44;99430.47;;;9.38;70.61
17072;BME280;7731;50.720;6.912;2024-03-23T13:27:11;99428.78;;;9.83;68.30
17072;BME280;7731;50.720;6.912;2024-03-23T13:29:39;99423.66;;;9.69;67.13
17072;BME280;7731;50.720;6.912;2024-03-23T13:32:08;99428.31;;;10.36;65.50
17072;BME280;7731;50.720;6.912;2024-03-23T13:34:35;99420.06;;;10.60;64.64
17072;BME280;7731;50.720;6.912;2024-03-23T13:37:01;99411.09;;;10.94;65.11
17072;BME280;7731;50.720;6.912;2024-03-23T13:39:31;99412.00;;;10.51;62.64
17072;BME280;7731;50.720;6.912;2024-03-23T13:41:57;99413.34;;;10.14;65.49
17072;BME280;7731;50.720;6.912;2024-03-23T13:44:24;99410.06;;;9.67;65.44
17072;BME280;7731;50.720;6.912;2024-03-23T13:46:50;99411.59;;;10.00;66.77
17072;BME280;7731;50.720;6.912;2024-03-23T13:49:28;99408.09;;;9.87;68.37
17072;BME280;7731;50.720;6.912;2024-03-23T13:51:55;99410.38;;;9.46;70.16
17072;BME280;7731;50.720;6.912;2024-03-23T13:54:22;99409.25;;;9.81;70.39
17072;BME280;7731;50.720;6.912;2024-03-23T13:56:53;99410.47;;;9.29;70.80
17072;BME280;7731;50.720;6.912;2024-03-23T13:59:21;99401.38;;;9.39;69.81
17072;BME280;7731;50.720;6.912;2024-03-23T14:01:47;99403.97;;;9.07;73.50
17072;BME280;7731;50.720;6.912;2024-03-23T14:04:14;99410.22;;;9.03;74.66
17072;BME280;7731;50.720;6.912;2024-03-23T14:06:45;99408.63;;;9.47;73.63
17072;BME280;7731;50.720;6.912;2024-03-23T14:09:11;99404.75;;;8.78;74.83
17072;BME280;7731;50.720;6.912;2024-03-23T14:11:38;99415.50;;;8.68;76.97